createdAt,value
2022-10-24T00:01:16.109Z,11.52
2022-10-24T00:03:43.118Z,10.80
2022-10-24T00:06:11.848Z,9.02
2022-10-24T00:08:40.838Z,9.10
2022-10-24T00:11:15.605Z,7.88
2022-10-24T00:13:43.575Z,6.57
2022-10-24T00:16:11.799Z,6.07
2022-10-24T00:18:38.699Z,6.43
2022-10-24T00:21:06.299Z,6.85
2022-10-24T00:23:33.262Z,12.88
2022-10-24T00:26:04.430Z,8.45
2022-10-24T00:28:33.460Z,9.02
2022-10-24T00:31:01.062Z,15.93
2022-10-24T00:33:28.202Z,9.88
2022-10-24T00:35:55.175Z,10.57
2022-10-24T00:38:22.196Z,14.50
2022-10-24T00:40:49.185Z,14.57
2022-10-24T00:43:20.525Z,14.18
2022-10-24T00:45:57.516Z,9.70
2022-10-24T00:48:30.578Z,8.20
2022-10-24T00:51:01.880Z,7.55
2022-10-24T00:53:32.013Z,6.05
2022-10-24T00:56:02.752Z,6.45
2022-10-24T00:58:32.692Z,4.82
2022-10-24T01:01:00.021Z,4.63
2022-10-24T01:03:27.530Z,5.22
2022-10-24T01:06:11.406Z,4.57
2022-10-24T01:09:18.411Z,5.70
2022-10-24T01:12:11.252Z,4.97
2022-10-24T01:14:53.117Z,5.18
2022-10-24T01:17:43.429Z,4.97
2022-10-24T01:20:42.978Z,5.53
2022-10-24T01:23:17.808Z,5.95
2022-10-24T01:25:52.040Z,4.75
2022-10-24T01:28:27.668Z,5.10
2022-10-24T01:31:08.030Z,5.20
2022-10-24T01:33:42.223Z,4.82
2022-10-24T01:36:30.947Z,4.45
2022-10-24T01:39:02.498Z,4.85
2022-10-24T01:41:31.462Z,4.43
2022-10-24T01:44:08.530Z,5.82
2022-10-24T01:46:40.253Z,5.57
2022-10-24T01:49:14.739Z,5.57
2022-10-24T01:51:42.698Z,6.10
2022-10-24T01:54:10.943Z,6.20
2022-10-24T01:56:37.859Z,6.40
2022-10-24T01:59:28.602Z,24.58
2022-10-24T02:01:56.907Z,51.77
2022-10-24T02:04:27.053Z,23.50
2022-10-24T02:06:56.564Z,15.45
2022-10-24T02:09:24.705Z,13.68
2022-10-24T02:11:53.746Z,12.80
2022-10-24T02:14:49.220Z,14.85
2022-10-24T02:17:17.298Z,11.75
2022-10-24T02:19:45.187Z,11.10
2022-10-24T02:22:28.184Z,10.18
2022-10-24T02:25:03.734Z,11.40
2022-10-24T02:27:33.886Z,10.90
2022-10-24T02:30:09.561Z,13.07
2022-10-24T02:32:41.249Z,11.85
2022-10-24T02:35:10.170Z,12.48
2022-10-24T02:37:43.132Z,10.50
2022-10-24T02:40:13.781Z,8.30
2022-10-24T02:42:42.478Z,5.20
2022-10-24T02:45:10.824Z,4.70
2022-10-24T02:47:41.781Z,5.43
2022-10-24T02:50:09.528Z,5.57
2022-10-24T02:52:38.621Z,5.15
2022-10-24T02:55:06.726Z,7.18
2022-10-24T02:57:33.718Z,8.02
2022-10-24T03:00:00.726Z,8.15
2022-10-24T03:02:27.960Z,4.80
2022-10-24T03:04:55.068Z,6.75
2022-10-24T03:07:22.028Z,13.23
2022-10-24T03:09:49.490Z,16.58
2022-10-24T03:12:17.919Z,9.07
2022-10-24T03:14:45.313Z,9.23
2022-10-24T03:17:12.198Z,4.97
2022-10-24T03:19:39.151Z,7.03
2022-10-24T03:22:06.104Z,15.93
2022-10-24T03:24:43.803Z,14.60
2022-10-24T03:27:11.976Z,21.52
2022-10-24T03:29:38.837Z,18.30
2022-10-24T03:32:06.553Z,10.07
2022-10-24T03:34:33.695Z,8.48
2022-10-24T03:37:00.944Z,8.73
2022-10-24T03:39:27.772Z,7.93
2022-10-24T03:41:54.741Z,7.40
2022-10-24T03:44:21.665Z,6.30
2022-10-24T03:46:48.557Z,7.60
2022-10-24T03:49:15.360Z,7.72
2022-10-24T03:51:42.293Z,7.70
2022-10-24T03:54:09.598Z,7.22
2022-10-24T03:56:36.763Z,10.30
2022-10-24T03:59:03.613Z,11.27
2022-10-24T04:01:30.653Z,15.82
2022-10-24T04:03:57.764Z,21.25
2022-10-24T04:06:24.728Z,18.42
2022-10-24T04:08:51.562Z,15.88
2022-10-24T04:11:18.587Z,16.80
2022-10-24T04:13:45.613Z,15.15
2022-10-24T04:16:12.508Z,11.77
2022-10-24T04:18:39.314Z,14.98
2022-10-24T04:21:06.787Z,14.20
2022-10-24T04:23:36.987Z,11.93
2022-10-24T04:26:04.463Z,10.82
2022-10-24T04:28:31.342Z,8.85
2022-10-24T04:30:58.635Z,9.38
2022-10-24T04:33:26.246Z,9.68
2022-10-24T04:35:53.289Z,8.90
2022-10-24T04:38:20.489Z,10.52
2022-10-24T04:40:53.463Z,8.02
2022-10-24T04:43:21.957Z,8.23
2022-10-24T04:45:48.984Z,8.10
2022-10-24T04:48:16.872Z,7.15
2022-10-24T04:50:45.035Z,7.70
2022-10-24T04:53:12.722Z,8.32
2022-10-24T04:55:39.737Z,8.63
2022-10-24T04:58:06.834Z,7.43
2022-10-24T05:00:34.002Z,9.02
2022-10-24T05:03:00.937Z,8.93
2022-10-24T05:05:27.968Z,7.05
2022-10-24T05:07:54.978Z,6.90
2022-10-24T05:10:21.844Z,9.65
2022-10-24T05:12:48.931Z,10.98
2022-10-24T05:15:16.062Z,10.60
2022-10-24T05:17:42.872Z,12.57
2022-10-24T05:20:10.827Z,11.98
2022-10-24T05:22:38.082Z,12.13
2022-10-24T05:25:05.866Z,10.40
2022-10-24T05:27:32.846Z,10.48
2022-10-24T05:30:00.099Z,10.63
2022-10-24T05:32:27.006Z,13.52
2022-10-24T05:34:53.935Z,14.45
2022-10-24T05:37:20.830Z,12.55
2022-10-24T05:39:47.945Z,10.25
2022-10-24T05:42:15.584Z,8.02
2022-10-24T05:44:42.650Z,9.40
2022-10-24T05:47:09.542Z,19.67
2022-10-24T05:49:36.917Z,13.18
2022-10-24T05:52:04.182Z,8.75
2022-10-24T05:54:42.422Z,7.35
2022-10-24T05:57:18.111Z,8.93
2022-10-24T05:59:45.007Z,8.80
2022-10-24T06:02:21.811Z,8.13
2022-10-24T06:04:50.683Z,7.70
2022-10-24T06:07:19.022Z,7.50
2022-10-24T06:09:49.150Z,8.60
2022-10-24T06:12:16.274Z,7.03
2022-10-24T06:14:44.671Z,7.05
2022-10-24T06:17:12.254Z,5.50
2022-10-24T06:19:40.285Z,5.20
2022-10-24T06:22:08.584Z,5.03
2022-10-24T06:24:37.081Z,5.72
2022-10-24T06:27:05.795Z,5.10
2022-10-24T06:29:33.028Z,6.50
2022-10-24T06:31:59.976Z,6.85
2022-10-24T06:34:27.165Z,15.60
2022-10-24T06:36:54.612Z,14.18
2022-10-24T06:39:21.933Z,13.82
2022-10-24T06:41:48.973Z,14.52
2022-10-24T06:44:16.956Z,15.27
2022-10-24T06:46:44.850Z,15.50
2022-10-24T06:49:13.660Z,14.40
2022-10-24T06:51:41.194Z,15.23
2022-10-24T06:54:08.759Z,14.70
2022-10-24T06:56:35.766Z,14.10
2022-10-24T06:59:02.511Z,15.48
2022-10-24T07:01:31.715Z,13.90
2022-10-24T07:03:58.727Z,13.90
2022-10-24T07:06:28.873Z,13.55
2022-10-24T07:08:59.545Z,11.63
2022-10-24T07:11:27.011Z,10.50
2022-10-24T07:13:57.931Z,10.60
2022-10-24T07:16:30.048Z,10.80
2022-10-24T07:18:57.079Z,11.30
2022-10-24T07:21:26.671Z,9.60
2022-10-24T07:23:54.799Z,10.23
2022-10-24T07:26:23.625Z,10.60
2022-10-24T07:28:54.768Z,11.30
2022-10-24T07:33:52.956Z,9.68
2022-10-24T07:36:22.870Z,7.20
2022-10-24T07:38:52.621Z,7.28
2022-10-24T07:41:19.665Z,8.10
2022-10-24T07:43:47.156Z,4.32
2022-10-24T07:46:17.084Z,3.78
2022-10-24T07:48:44.357Z,3.17
2022-10-24T07:51:13.716Z,2.15
2022-10-24T07:53:41.993Z,2.95
2022-10-24T07:56:14.545Z,2.10
2022-10-24T07:58:43.627Z,3.17
2022-10-24T08:01:15.364Z,9.57
2022-10-24T08:03:42.611Z,8.93
2022-10-24T08:06:13.706Z,7.28
2022-10-24T08:08:41.006Z,7.30
2022-10-24T08:11:10.671Z,5.13
2022-10-24T08:13:38.797Z,4.13
2022-10-24T08:16:11.204Z,4.45
2022-10-24T08:18:39.969Z,5.38
2022-10-24T08:21:10.322Z,4.82
2022-10-24T08:23:40.121Z,3.97
2022-10-24T08:26:08.666Z,3.70
2022-10-24T08:28:36.787Z,4.03
2022-10-24T08:31:06.956Z,4.07
2022-10-24T08:33:35.395Z,3.75
2022-10-24T08:36:06.155Z,3.22
2022-10-24T08:38:33.461Z,3.40
2022-10-24T08:41:01.297Z,3.45
2022-10-24T08:43:28.336Z,2.70
2022-10-24T08:46:00.891Z,2.15
2022-10-24T08:48:34.857Z,2.53
2022-10-24T08:51:27.763Z,1.95
2022-10-24T08:54:01.301Z,1.58
2022-10-24T08:56:32.305Z,1.52
2022-10-24T08:59:03.527Z,1.30
2022-10-24T09:01:43.168Z,0.80
2022-10-24T09:04:14.885Z,1.00
2022-10-24T09:06:42.834Z,1.40
2022-10-24T09:09:23.486Z,1.00
2022-10-24T09:11:56.239Z,0.80
2022-10-24T09:14:36.901Z,0.80
2022-10-24T09:20:26.742Z,1.50
2022-10-24T09:22:59.920Z,0.85
2022-10-24T09:25:35.140Z,0.90
2022-10-24T09:28:06.087Z,0.50
2022-10-24T09:30:36.900Z,0.60
2022-10-24T09:33:28.338Z,0.90
2022-10-24T09:36:01.629Z,0.60
2022-10-24T09:38:33.918Z,0.50
2022-10-24T09:41:26.662Z,0.70
2022-10-24T09:43:56.850Z,0.70
2022-10-24T09:46:39.029Z,0.70
2022-10-24T09:49:22.926Z,0.80
2022-10-24T09:52:07.097Z,0.60
2022-10-24T09:54:36.487Z,1.23
2022-10-24T09:57:12.963Z,0.70
2022-10-24T09:59:46.479Z,0.70
2022-10-24T10:02:14.765Z,0.80
2022-10-24T10:04:42.819Z,0.50
2022-10-24T10:07:13.008Z,1.02
2022-10-24T10:09:55.624Z,0.90
2022-10-24T10:12:38.059Z,0.55
2022-10-24T10:15:18.517Z,0.70
2022-10-24T10:17:55.427Z,0.70
2022-10-24T10:20:31.607Z,0.80
2022-10-24T10:23:33.711Z,0.60
2022-10-24T10:26:42.056Z,0.70
2022-10-24T10:29:18.692Z,0.98
2022-10-24T10:31:51.164Z,0.80
2022-10-24T10:34:41.096Z,1.00
2022-10-24T10:37:29.371Z,1.13
2022-10-24T10:40:15.557Z,1.20
2022-10-24T10:43:06.026Z,1.10
2022-10-24T10:45:54.970Z,1.73
2022-10-24T10:48:39.954Z,1.13
2022-10-24T10:51:36.107Z,1.00
2022-10-24T10:54:19.380Z,0.98
2022-10-24T10:56:55.799Z,0.90
2022-10-24T10:59:32.230Z,1.15
2022-10-24T11:02:14.620Z,2.03
2022-10-24T11:04:51.918Z,0.82
2022-10-24T11:07:45.314Z,0.65
2022-10-24T11:10:19.110Z,0.80
2022-10-24T11:12:46.926Z,0.68
2022-10-24T11:15:28.441Z,0.70
2022-10-24T11:18:02.535Z,0.60
2022-10-24T11:20:45.681Z,0.80
2022-10-24T11:23:20.515Z,0.65
2022-10-24T11:26:03.393Z,0.70
2022-10-24T11:28:53.047Z,0.80
2022-10-24T11:31:29.131Z,0.68
2022-10-24T11:34:06.163Z,0.77
2022-10-24T11:36:53.427Z,0.63
2022-10-24T11:39:35.424Z,0.93
2022-10-24T11:42:19.806Z,0.52
2022-10-24T11:45:04.750Z,0.70
2022-10-24T11:47:50.034Z,1.00
2022-10-24T11:50:34.992Z,0.70
2022-10-24T11:53:31.220Z,0.60
2022-10-24T11:56:15.870Z,0.60
2022-10-24T11:59:07.487Z,0.52
2022-10-24T12:01:40.876Z,0.50
2022-10-24T12:04:13.930Z,0.60
2022-10-24T12:06:55.918Z,1.38
2022-10-24T12:09:36.355Z,2.28
2022-10-24T12:12:37.912Z,1.10
2022-10-24T12:15:15.340Z,1.05
2022-10-24T12:17:49.322Z,0.80
2022-10-24T12:20:24.400Z,0.80
2022-10-24T12:22:53.367Z,3.83
2022-10-24T12:25:35.658Z,2.25
2022-10-24T12:28:05.921Z,1.50
2022-10-24T12:30:36.055Z,0.90
2022-10-24T12:33:12.884Z,0.80
2022-10-24T12:35:49.213Z,0.90
2022-10-24T12:38:28.543Z,1.10
2022-10-24T12:41:21.581Z,1.05
2022-10-24T12:43:49.607Z,0.68
2022-10-24T12:46:28.703Z,0.60
2022-10-24T12:48:59.377Z,1.00
2022-10-24T12:51:33.241Z,0.50
2022-10-24T12:54:17.379Z,0.80
2022-10-24T12:56:54.207Z,1.05
2022-10-24T12:59:30.376Z,0.90
2022-10-24T13:02:16.051Z,0.90
2022-10-24T13:05:04.628Z,1.10
2022-10-24T13:07:41.573Z,0.90
2022-10-24T13:10:37.982Z,1.05
2022-10-24T13:13:27.120Z,0.90
2022-10-24T13:16:03.162Z,1.15
2022-10-24T13:18:56.849Z,0.90
2022-10-24T13:24:17.671Z,1.50
2022-10-24T13:26:53.749Z,1.15
2022-10-24T13:29:23.750Z,1.25
2022-10-24T13:32:19.946Z,0.90
2022-10-24T13:34:51.086Z,1.00
2022-10-24T13:37:45.231Z,1.00
2022-10-24T13:40:21.895Z,1.00
2022-10-24T13:42:54.579Z,0.98
2022-10-24T13:45:44.936Z,1.17
2022-10-24T13:48:28.774Z,1.60
2022-10-24T13:51:04.949Z,1.60
2022-10-24T13:53:42.253Z,0.82
2022-10-24T13:56:11.342Z,1.05
2022-10-24T13:58:44.349Z,1.27
2022-10-24T14:01:19.426Z,1.00
2022-10-24T14:03:48.143Z,1.30
2022-10-24T14:06:15.682Z,1.25
2022-10-24T14:08:53.404Z,1.10
2022-10-24T14:11:31.471Z,1.30
2022-10-24T14:14:04.295Z,1.48
2022-10-24T14:16:36.012Z,2.15
2022-10-24T14:19:27.095Z,3.10
2022-10-24T14:21:58.384Z,5.13
2022-10-24T14:24:26.021Z,3.55
2022-10-24T14:26:56.892Z,2.38
2022-10-24T14:29:27.972Z,2.45
2022-10-24T14:32:10.047Z,2.67
2022-10-24T14:34:39.385Z,3.00
2022-10-24T14:37:17.141Z,3.63
2022-10-24T14:39:45.080Z,2.55
2022-10-24T14:42:16.959Z,2.97
2022-10-24T14:44:46.582Z,3.58
2022-10-24T14:47:32.885Z,3.35
2022-10-24T14:50:00.712Z,3.20
2022-10-24T14:52:37.289Z,2.95
2022-10-24T14:55:13.930Z,3.92
2022-10-24T14:57:49.258Z,3.33
2022-10-24T15:00:22.608Z,3.60
2022-10-24T15:02:53.741Z,3.65
2022-10-24T15:05:20.967Z,3.60
2022-10-24T15:08:22.028Z,3.40
2022-10-24T15:10:48.842Z,3.20
2022-10-24T15:13:17.679Z,3.40
2022-10-24T15:15:45.815Z,4.13
2022-10-24T15:18:21.137Z,4.82
2022-10-24T15:20:51.146Z,4.63
2022-10-24T15:23:31.460Z,5.18
2022-10-24T15:26:07.980Z,13.23
2022-10-24T15:28:36.854Z,4.85
2022-10-24T15:31:04.082Z,5.88
2022-10-24T15:33:32.416Z,5.63
2022-10-24T15:35:59.733Z,5.70
2022-10-24T15:38:26.784Z,7.20
2022-10-24T15:40:53.968Z,5.90
2022-10-24T15:43:21.330Z,5.70
2022-10-24T15:45:48.357Z,10.35
2022-10-24T15:48:15.540Z,10.07
2022-10-24T15:50:46.210Z,21.10
2022-10-24T15:53:20.649Z,10.98
2022-10-24T15:55:48.304Z,19.80
2022-10-24T15:58:17.294Z,14.82
2022-10-24T16:00:44.588Z,12.02
2022-10-24T16:03:15.688Z,13.02
2022-10-24T16:05:47.347Z,12.02
2022-10-24T16:08:16.327Z,12.43
2022-10-24T16:10:43.697Z,11.68
2022-10-24T16:13:14.713Z,11.32
2022-10-24T16:15:43.528Z,9.90
2022-10-24T16:18:11.982Z,11.60
2022-10-24T16:20:39.493Z,11.52
2022-10-24T16:23:07.621Z,11.52
2022-10-24T16:25:38.225Z,10.65
2022-10-24T16:28:07.965Z,11.38
2022-10-24T16:30:37.523Z,14.23
2022-10-24T16:33:04.923Z,18.00
2022-10-24T16:35:34.655Z,17.25
2022-10-24T16:38:04.101Z,19.50
2022-10-24T16:40:31.510Z,18.42
2022-10-24T16:43:00.459Z,21.92
2022-10-24T16:45:27.473Z,19.33
2022-10-24T16:47:54.647Z,18.67
2022-10-24T16:50:26.215Z,13.40
2022-10-24T16:53:02.787Z,13.88
2022-10-24T16:55:31.273Z,14.05
2022-10-24T16:57:59.330Z,7.40
2022-10-24T17:00:28.457Z,6.80
2022-10-24T17:02:58.235Z,5.38
2022-10-24T17:05:27.419Z,5.25
2022-10-24T17:07:55.532Z,5.55
2022-10-24T17:10:24.795Z,9.95
2022-10-24T17:12:52.731Z,10.05
2022-10-24T17:15:25.100Z,8.77
2022-10-24T17:17:52.225Z,9.80
2022-10-24T17:20:19.386Z,11.32
2022-10-24T17:22:47.025Z,11.38
2022-10-24T17:25:21.741Z,12.02
2022-10-24T17:27:49.618Z,12.50
2022-10-24T17:30:21.400Z,13.23
2022-10-24T17:32:49.186Z,16.55
2022-10-24T17:35:18.829Z,17.33
2022-10-24T17:37:52.458Z,16.60
2022-10-24T17:40:23.169Z,15.43
2022-10-24T17:42:50.360Z,19.43
2022-10-24T17:45:23.089Z,18.42
2022-10-24T17:47:50.317Z,17.13
2022-10-24T17:50:18.480Z,15.32
2022-10-24T17:52:50.985Z,19.90
2022-10-24T17:58:11.402Z,28.80
2022-10-24T18:00:39.228Z,26.25
2022-10-24T18:03:08.690Z,24.60
2022-10-24T18:05:38.324Z,25.05
2022-10-24T18:08:07.786Z,26.48
2022-10-24T18:10:37.483Z,37.80
2022-10-24T18:13:04.842Z,73.65
2022-10-24T18:15:31.914Z,32.63
2022-10-24T18:17:59.089Z,25.77
2022-10-24T18:20:26.184Z,19.08
2022-10-24T18:22:53.343Z,19.52
2022-10-24T18:25:22.912Z,19.60
2022-10-24T18:27:52.210Z,22.40
2022-10-24T18:30:22.818Z,24.55
2022-10-24T18:32:50.335Z,15.98
2022-10-24T18:35:20.819Z,15.20
2022-10-24T18:37:48.973Z,11.18
2022-10-24T18:40:17.096Z,12.23
2022-10-24T18:43:04.288Z,10.98
2022-10-24T18:45:32.764Z,11.63
2022-10-24T18:48:00.232Z,14.32
2022-10-24T18:50:29.462Z,20.95
2022-10-24T18:53:04.990Z,17.20
2022-10-24T18:55:33.817Z,16.58
2022-10-24T18:58:01.320Z,24.45
2022-10-24T19:00:30.949Z,27.60
2022-10-24T19:03:40.140Z,32.85
2022-10-24T19:06:26.739Z,35.10
2022-10-24T19:08:54.400Z,33.13
2022-10-24T19:11:23.482Z,30.60
2022-10-24T19:13:50.638Z,28.77
2022-10-24T19:16:22.098Z,29.83
2022-10-24T19:18:54.955Z,20.38
2022-10-24T19:21:22.270Z,16.40
2022-10-24T19:23:50.896Z,10.52
2022-10-24T19:26:18.236Z,9.00
2022-10-24T19:28:45.304Z,9.52
2022-10-24T19:31:13.514Z,11.30
2022-10-24T19:33:52.896Z,8.70
2022-10-24T19:36:20.137Z,8.93
2022-10-24T19:38:47.329Z,9.57
2022-10-24T19:41:14.547Z,10.02
2022-10-24T19:43:41.475Z,9.43
2022-10-24T19:46:19.329Z,7.25
2022-10-24T19:48:53.329Z,8.90
2022-10-24T19:51:20.513Z,8.77
2022-10-24T19:53:49.661Z,7.93
2022-10-24T19:56:25.575Z,8.95
2022-10-24T19:58:55.973Z,8.77
2022-10-24T20:01:25.786Z,7.63
2022-10-24T20:03:55.151Z,7.47
2022-10-24T20:06:24.355Z,7.50
2022-10-24T20:08:51.393Z,7.90
2022-10-24T20:11:20.949Z,10.30
2022-10-24T20:13:50.567Z,11.02
2022-10-24T20:16:18.391Z,10.82
2022-10-24T20:18:45.912Z,10.55
2022-10-24T20:21:16.273Z,9.88
2022-10-24T20:23:43.676Z,10.27
2022-10-24T20:26:14.427Z,9.23
2022-10-24T20:28:43.811Z,10.10
2022-10-24T20:31:21.945Z,10.35
2022-10-24T20:33:49.842Z,9.55
2022-10-24T20:36:17.182Z,8.18
2022-10-24T20:38:44.624Z,7.68
2022-10-24T20:41:11.567Z,7.65
2022-10-24T20:43:38.715Z,7.90
2022-10-24T20:46:06.662Z,8.57
2022-10-24T20:48:34.726Z,8.25
2022-10-24T20:51:06.356Z,8.57
2022-10-24T20:56:15.583Z,7.38
2022-10-24T20:58:44.084Z,7.40
2022-10-24T21:01:14.089Z,9.05
2022-10-24T21:03:41.377Z,8.40
2022-10-24T21:06:28.606Z,9.02
2022-10-24T21:08:58.400Z,7.35
2022-10-24T21:11:28.022Z,7.85
2022-10-24T21:13:59.578Z,8.77
2022-10-24T21:16:27.876Z,7.72
2022-10-24T21:18:55.132Z,7.22
2022-10-24T21:21:23.021Z,8.02
2022-10-24T21:23:52.070Z,5.88
2022-10-24T21:26:19.879Z,6.75
2022-10-24T21:28:48.324Z,7.65
2022-10-24T21:31:17.848Z,7.65
2022-10-24T21:33:45.605Z,8.50
2022-10-24T21:36:15.096Z,7.85
2022-10-24T21:38:46.019Z,6.82
2022-10-24T21:41:13.025Z,7.13
2022-10-24T21:43:41.851Z,8.35
2022-10-24T21:46:10.809Z,7.70
2022-10-24T21:48:39.208Z,6.15
2022-10-24T21:51:10.727Z,5.53
2022-10-24T21:53:42.792Z,5.50
2022-10-24T21:56:12.839Z,5.07
2022-10-24T21:58:40.978Z,4.50
2022-10-24T22:01:13.243Z,4.38
2022-10-24T22:03:41.811Z,4.65
2022-10-24T22:06:12.161Z,4.20
2022-10-24T22:08:39.438Z,4.65
2022-10-24T22:11:11.615Z,4.82
2022-10-24T22:13:38.946Z,4.40
2022-10-24T22:16:07.713Z,4.55
2022-10-24T22:18:35.239Z,4.72
2022-10-24T22:21:04.001Z,4.90
2022-10-24T22:23:31.067Z,5.10
2022-10-24T22:25:58.942Z,5.35
2022-10-24T22:28:26.219Z,5.13
2022-10-24T22:30:53.588Z,6.10
2022-10-24T22:33:39.346Z,6.60
2022-10-24T22:36:13.688Z,7.10
2022-10-24T22:38:41.184Z,7.57
2022-10-24T22:41:12.289Z,6.72
2022-10-24T22:43:40.121Z,7.28
2022-10-24T22:46:22.297Z,5.43
2022-10-24T22:48:55.621Z,4.97
2022-10-24T22:51:23.152Z,5.32
2022-10-24T22:53:50.409Z,5.18
2022-10-24T22:56:27.753Z,5.25
2022-10-24T22:58:54.983Z,5.30
2022-10-24T23:01:36.431Z,4.70
2022-10-24T23:04:30.301Z,5.20
2022-10-24T23:07:16.515Z,5.38
2022-10-24T23:09:43.659Z,4.88
2022-10-24T23:12:14.630Z,4.53
2022-10-24T23:14:43.360Z,5.05
2022-10-24T23:17:14.171Z,4.13
2022-10-24T23:19:45.999Z,4.22
2022-10-24T23:22:26.666Z,4.25
2022-10-24T23:24:56.095Z,4.43
2022-10-24T23:27:25.442Z,3.85
2022-10-24T23:29:53.646Z,4.22
2022-10-24T23:32:23.268Z,4.72
2022-10-24T23:34:52.097Z,4.45
2022-10-24T23:37:28.979Z,4.38
2022-10-24T23:39:56.647Z,4.00
2022-10-24T23:42:24.114Z,4.90
2022-10-24T23:44:53.783Z,4.60
2022-10-24T23:47:52.032Z,4.38
2022-10-24T23:50:27.254Z,3.58
2022-10-24T23:53:00.793Z,3.72
2022-10-24T23:55:28.566Z,3.58
2022-10-24T23:57:55.492Z,4.00
